Aérodrome :
LOGIN :

S'inscrire | Disclaimer

   EN    FR    IT 

 










Légende :    VFR   VFR Marginal   IFR   IFR Intensif   IFR Très Intensif
Visi : 
Plafond : 
>= 8 km
>= 3000ft
5 à 8 km
1000 à 3000 ft
1500m à 5 km
500 à 1000 ft
800 à 1500m
200 à 500 ft
< 800m
< 200 ft
Symboles :   Orages  Brouillard  Fortes neiges  Fortes précipitations  Vent > 20 kt
SIGMETs :   Divers  Orages  Givrage  Turbulence  Onde Orograph.  Cendres Volcan.







- Altitude de l'aérodrome : 190 ft
- Code IATA : CAX
- Voir les cartes d'approche


EGNC - Carlisle

DERNIER METAR :
  • 231450Z 23012KT 190V260 9999 VCSH FEW011 BKN019 14/13 Q1011

METARs EXPIRÉS :
  • 231420Z 21008KT 9999 -DZ FEW013 BKN019 13/12 Q1011
  • 231350Z 19007KT 150V220 9999 VCSH FEW014 BKN023 13/12 Q1011
  • 231320Z 18006KT 120V250 9999 VCSH FEW014 BKN023 14/12 Q1011
  • 231250Z 18006KT 140V210 9999 VCSH FEW018 BKN024 14/12 Q1011
  • 231220Z 19010KT 9999 -RA FEW018 BKN024 14/12 Q1011

TAF TAF EGNC
Valide du 23 à 15h jusqu'au 23 à 17h UTC


231401Z 2315/2317 23010KT 9999 SCT025
ATIS : +44 1228 574 123
Pas de NOTAMs connus pour ce terrain.



MET'MAP, la Météo Aéronautique d'un coup d'oeil ! - Copyright ORBIFLY Décembre 2007 - Disclaimer

ORBIFLY MET'MAP TEAM :

Programmation & Développement : Alexandra Zaïnal
Conception & Développement : Baudouin d'Aumeries
Co-Programmation & Développement : Marc-Olivier Méhu
Soutien technique & logistique : Manuel Goepfert

Contact : metmap@orbifly.com




SOURCES & CREDITS :

   NOAA